sensor_id;sensor_type;location;lat;lon;timestamp;P1;durP1;ratioP1;P2;durP2;ratioP2
21354;SDS011;10835;50.148;19.760;2022-10-01T00:01:16;30.77;;;15.77;;
21354;SDS011;10835;50.148;19.760;2022-10-01T00:03:46;25.85;;;14.40;;
21354;SDS011;10835;50.148;19.760;2022-10-01T00:06:15;23.98;;;14.32;;
21354;SDS011;10835;50.148;19.760;2022-10-01T00:08:46;26.30;;;14.23;;
21354;SDS011;10835;50.148;19.760;2022-10-01T00:11:17;22.58;;;13.13;;
21354;SDS011;10835;50.148;19.760;2022-10-01T00:13:46;21.70;;;12.88;;
21354;SDS011;10835;50.148;19.760;2022-10-01T00:16:16;25.58;;;12.40;;
21354;SDS011;10835;50.148;19.760;2022-10-01T00:18:47;23.45;;;13.05;;
21354;SDS011;10835;50.148;19.760;2022-10-01T00:21:16;27.58;;;13.82;;
21354;SDS011;10835;50.148;19.760;2022-10-01T00:23:46;21.75;;;13.80;;
21354;SDS011;10835;50.148;19.760;2022-10-01T00:26:15;23.83;;;14.27;;
21354;SDS011;10835;50.148;19.760;2022-10-01T00:28:46;27.60;;;13.60;;
21354;SDS011;10835;50.148;19.760;2022-10-01T00:31:19;22.65;;;13.02;;
21354;SDS011;10835;50.148;19.760;2022-10-01T00:33:50;23.17;;;12.95;;
21354;SDS011;10835;50.148;19.760;2022-10-01T00:36:18;27.27;;;14.40;;
21354;SDS011;10835;50.148;19.760;2022-10-01T00:38:46;25.48;;;14.25;;
21354;SDS011;10835;50.148;19.760;2022-10-01T00:41:14;29.77;;;14.90;;
21354;SDS011;10835;50.148;19.760;2022-10-01T00:43:44;23.52;;;13.13;;
21354;SDS011;10835;50.148;19.760;2022-10-01T00:46:14;26.42;;;14.18;;
21354;SDS011;10835;50.148;19.760;2022-10-01T00:48:48;27.92;;;14.80;;
21354;SDS011;10835;50.148;19.760;2022-10-01T00:51:24;29.27;;;15.93;;
21354;SDS011;10835;50.148;19.760;2022-10-01T00:53:57;25.58;;;15.05;;
21354;SDS011;10835;50.148;19.760;2022-10-01T00:56:30;27.50;;;15.13;;
21354;SDS011;10835;50.148;19.760;2022-10-01T00:58:59;25.55;;;14.63;;
21354;SDS011;10835;50.148;19.760;2022-10-01T01:01:28;26.73;;;14.70;;
21354;SDS011;10835;50.148;19.760;2022-10-01T01:03:58;27.23;;;15.60;;
21354;SDS011;10835;50.148;19.760;2022-10-01T01:06:26;28.58;;;14.63;;
21354;SDS011;10835;50.148;19.760;2022-10-01T01:08:54;23.77;;;13.68;;
21354;SDS011;10835;50.148;19.760;2022-10-01T01:11:23;27.65;;;15.90;;
21354;SDS011;10835;50.148;19.760;2022-10-01T01:14:00;33.47;;;16.08;;
21354;SDS011;10835;50.148;19.760;2022-10-01T01:16:33;29.20;;;15.15;;
21354;SDS011;10835;50.148;19.760;2022-10-01T01:19:11;24.52;;;14.45;;
21354;SDS011;10835;50.148;19.760;2022-10-01T01:21:47;27.67;;;15.20;;
21354;SDS011;10835;50.148;19.760;2022-10-01T01:24:36;30.00;;;15.00;;
21354;SDS011;10835;50.148;19.760;2022-10-01T01:27:16;26.42;;;13.57;;
21354;SDS011;10835;50.148;19.760;2022-10-01T01:29:54;27.27;;;15.07;;
21354;SDS011;10835;50.148;19.760;2022-10-01T01:32:31;30.02;;;15.23;;
21354;SDS011;10835;50.148;19.760;2022-10-01T01:35:08;24.88;;;15.20;;
21354;SDS011;10835;50.148;19.760;2022-10-01T01:37:38;26.95;;;13.70;;
21354;SDS011;10835;50.148;19.760;2022-10-01T01:40:09;34.92;;;16.67;;
21354;SDS011;10835;50.148;19.760;2022-10-01T01:42:39;32.90;;;16.00;;
21354;SDS011;10835;50.148;19.760;2022-10-01T01:45:12;34.00;;;17.00;;
21354;SDS011;10835;50.148;19.760;2022-10-01T01:47:43;31.10;;;16.05;;
21354;SDS011;10835;50.148;19.760;2022-10-01T01:50:12;28.58;;;16.90;;
21354;SDS011;10835;50.148;19.760;2022-10-01T01:52:42;26.98;;;15.10;;
21354;SDS011;10835;50.148;19.760;2022-10-01T01:55:11;26.33;;;14.52;;
21354;SDS011;10835;50.148;19.760;2022-10-01T01:57:40;27.42;;;15.00;;
21354;SDS011;10835;50.148;19.760;2022-10-01T02:00:12;27.45;;;13.85;;
21354;SDS011;10835;50.148;19.760;2022-10-01T02:02:42;24.42;;;13.85;;
21354;SDS011;10835;50.148;19.760;2022-10-01T02:05:16;27.70;;;15.60;;
21354;SDS011;10835;50.148;19.760;2022-10-01T02:07:52;25.98;;;13.77;;
21354;SDS011;10835;50.148;19.760;2022-10-01T02:10:35;27.55;;;14.48;;
21354;SDS011;10835;50.148;19.760;2022-10-01T02:13:18;33.33;;;16.27;;
21354;SDS011;10835;50.148;19.760;2022-10-01T02:15:58;29.98;;;15.43;;
21354;SDS011;10835;50.148;19.760;2022-10-01T02:18:33;33.70;;;16.40;;
21354;SDS011;10835;50.148;19.760;2022-10-01T02:21:09;35.50;;;18.73;;
21354;SDS011;10835;50.148;19.760;2022-10-01T02:23:47;33.42;;;16.40;;
21354;SDS011;10835;50.148;19.760;2022-10-01T02:26:19;32.92;;;16.85;;
21354;SDS011;10835;50.148;19.760;2022-10-01T02:28:49;36.78;;;17.30;;
21354;SDS011;10835;50.148;19.760;2022-10-01T02:31:22;37.95;;;16.92;;
21354;SDS011;10835;50.148;19.760;2022-10-01T02:33:50;33.90;;;16.02;;
21354;SDS011;10835;50.148;19.760;2022-10-01T02:36:20;33.42;;;17.38;;
21354;SDS011;10835;50.148;19.760;2022-10-01T02:38:50;34.53;;;17.08;;
21354;SDS011;10835;50.148;19.760;2022-10-01T02:41:22;36.83;;;18.95;;
21354;SDS011;10835;50.148;19.760;2022-10-01T02:43:55;39.30;;;18.10;;
21354;SDS011;10835;50.148;19.760;2022-10-01T02:46:29;37.60;;;19.65;;
21354;SDS011;10835;50.148;19.760;2022-10-01T02:49:07;38.50;;;19.35;;
21354;SDS011;10835;50.148;19.760;2022-10-01T02:51:41;35.30;;;17.58;;
21354;SDS011;10835;50.148;19.760;2022-10-01T02:54:16;31.95;;;17.02;;
21354;SDS011;10835;50.148;19.760;2022-10-01T02:56:49;36.08;;;18.48;;
21354;SDS011;10835;50.148;19.760;2022-10-01T02:59:35;29.13;;;15.35;;
21354;SDS011;10835;50.148;19.760;2022-10-01T03:02:04;34.17;;;18.52;;
21354;SDS011;10835;50.148;19.760;2022-10-01T03:04:32;33.55;;;17.70;;
21354;SDS011;10835;50.148;19.760;2022-10-01T03:07:00;29.10;;;15.77;;
21354;SDS011;10835;50.148;19.760;2022-10-01T03:09:29;30.92;;;17.35;;
21354;SDS011;10835;50.148;19.760;2022-10-01T03:11:58;33.20;;;16.27;;
21354;SDS011;10835;50.148;19.760;2022-10-01T03:14:26;28.15;;;14.77;;
21354;SDS011;10835;50.148;19.760;2022-10-01T03:16:54;29.00;;;16.58;;
21354;SDS011;10835;50.148;19.760;2022-10-01T03:19:24;29.75;;;15.85;;
21354;SDS011;10835;50.148;19.760;2022-10-01T03:21:52;27.75;;;13.93;;
21354;SDS011;10835;50.148;19.760;2022-10-01T03:24:21;28.92;;;15.38;;
21354;SDS011;10835;50.148;19.760;2022-10-01T03:26:49;30.13;;;15.90;;
21354;SDS011;10835;50.148;19.760;2022-10-01T03:29:17;27.77;;;14.65;;
21354;SDS011;10835;50.148;19.760;2022-10-01T03:31:45;28.95;;;14.88;;
21354;SDS011;10835;50.148;19.760;2022-10-01T03:34:13;30.50;;;14.95;;
21354;SDS011;10835;50.148;19.760;2022-10-01T03:36:43;27.15;;;14.82;;
21354;SDS011;10835;50.148;19.760;2022-10-01T03:39:11;29.67;;;14.43;;
21354;SDS011;10835;50.148;19.760;2022-10-01T03:41:39;28.58;;;14.15;;
21354;SDS011;10835;50.148;19.760;2022-10-01T03:44:07;30.60;;;14.55;;
21354;SDS011;10835;50.148;19.760;2022-10-01T03:46:35;28.95;;;14.70;;
21354;SDS011;10835;50.148;19.760;2022-10-01T03:49:03;29.00;;;15.85;;
21354;SDS011;10835;50.148;19.760;2022-10-01T03:51:32;27.38;;;13.70;;
21354;SDS011;10835;50.148;19.760;2022-10-01T03:54:03;27.65;;;14.15;;
21354;SDS011;10835;50.148;19.760;2022-10-01T03:56:32;31.02;;;13.38;;
21354;SDS011;10835;50.148;19.760;2022-10-01T03:59:00;25.25;;;13.75;;
21354;SDS011;10835;50.148;19.760;2022-10-01T04:01:28;25.00;;;13.65;;
21354;SDS011;10835;50.148;19.760;2022-10-01T04:03:57;26.88;;;13.43;;
21354;SDS011;10835;50.148;19.760;2022-10-01T04:06:25;25.85;;;13.32;;
21354;SDS011;10835;50.148;19.760;2022-10-01T04:08:53;22.55;;;13.00;;
21354;SDS011;10835;50.148;19.760;2022-10-01T04:11:22;27.40;;;14.77;;
21354;SDS011;10835;50.148;19.760;2022-10-01T04:13:51;27.60;;;14.32;;
21354;SDS011;10835;50.148;19.760;2022-10-01T04:16:21;25.63;;;14.05;;
21354;SDS011;10835;50.148;19.760;2022-10-01T04:18:49;22.83;;;13.25;;
21354;SDS011;10835;50.148;19.760;2022-10-01T04:21:17;27.80;;;14.80;;
21354;SDS011;10835;50.148;19.760;2022-10-01T04:23:45;23.27;;;12.80;;
21354;SDS011;10835;50.148;19.760;2022-10-01T04:26:15;27.75;;;13.95;;
21354;SDS011;10835;50.148;19.760;2022-10-01T04:28:45;26.33;;;13.63;;
21354;SDS011;10835;50.148;19.760;2022-10-01T04:31:13;22.85;;;12.50;;
21354;SDS011;10835;50.148;19.760;2022-10-01T04:33:51;26.33;;;12.40;;
21354;SDS011;10835;50.148;19.760;2022-10-01T04:36:20;25.83;;;14.13;;
21354;SDS011;10835;50.148;19.760;2022-10-01T04:38:49;21.80;;;12.50;;
21354;SDS011;10835;50.148;19.760;2022-10-01T04:41:22;23.75;;;12.27;;
21354;SDS011;10835;50.148;19.760;2022-10-01T04:43:52;25.85;;;14.02;;
21354;SDS011;10835;50.148;19.760;2022-10-01T04:46:20;23.83;;;12.90;;
21354;SDS011;10835;50.148;19.760;2022-10-01T04:48:48;24.50;;;13.90;;
21354;SDS011;10835;50.148;19.760;2022-10-01T04:51:16;24.02;;;13.00;;
21354;SDS011;10835;50.148;19.760;2022-10-01T04:53:44;24.58;;;13.38;;
21354;SDS011;10835;50.148;19.760;2022-10-01T04:56:15;29.52;;;14.77;;
21354;SDS011;10835;50.148;19.760;2022-10-01T04:58:42;28.77;;;15.38;;
21354;SDS011;10835;50.148;19.760;2022-10-01T05:01:12;30.17;;;14.88;;
21354;SDS011;10835;50.148;19.760;2022-10-01T05:03:40;30.85;;;15.60;;
21354;SDS011;10835;50.148;19.760;2022-10-01T05:06:08;29.45;;;14.82;;
21354;SDS011;10835;50.148;19.760;2022-10-01T05:08:36;25.33;;;14.60;;
21354;SDS011;10835;50.148;19.760;2022-10-01T05:11:04;26.77;;;14.75;;
21354;SDS011;10835;50.148;19.760;2022-10-01T05:13:32;29.27;;;15.05;;
21354;SDS011;10835;50.148;19.760;2022-10-01T05:16:00;28.00;;;14.02;;
21354;SDS011;10835;50.148;19.760;2022-10-01T05:18:32;27.88;;;13.82;;
21354;SDS011;10835;50.148;19.760;2022-10-01T05:21:02;29.67;;;15.48;;
21354;SDS011;10835;50.148;19.760;2022-10-01T05:23:33;28.73;;;15.95;;
21354;SDS011;10835;50.148;19.760;2022-10-01T05:26:01;26.55;;;14.52;;
21354;SDS011;10835;50.148;19.760;2022-10-01T05:28:32;31.73;;;15.98;;
21354;SDS011;10835;50.148;19.760;2022-10-01T05:31:02;32.20;;;15.88;;
21354;SDS011;10835;50.148;19.760;2022-10-01T05:33:34;35.40;;;16.55;;
21354;SDS011;10835;50.148;19.760;2022-10-01T05:36:04;26.50;;;15.73;;
21354;SDS011;10835;50.148;19.760;2022-10-01T05:38:33;32.45;;;15.32;;
21354;SDS011;10835;50.148;19.760;2022-10-01T05:41:02;29.00;;;16.25;;
21354;SDS011;10835;50.148;19.760;2022-10-01T05:43:30;32.13;;;15.10;;
21354;SDS011;10835;50.148;19.760;2022-10-01T05:45:59;33.60;;;16.35;;
21354;SDS011;10835;50.148;19.760;2022-10-01T05:48:28;35.42;;;16.42;;
21354;SDS011;10835;50.148;19.760;2022-10-01T05:51:04;29.88;;;16.00;;
21354;SDS011;10835;50.148;19.760;2022-10-01T05:53:33;28.60;;;15.40;;
21354;SDS011;10835;50.148;19.760;2022-10-01T05:56:02;30.45;;;14.63;;
21354;SDS011;10835;50.148;19.760;2022-10-01T05:58:32;30.90;;;16.02;;
21354;SDS011;10835;50.148;19.760;2022-10-01T06:01:00;28.42;;;15.27;;
21354;SDS011;10835;50.148;19.760;2022-10-01T06:03:29;26.63;;;15.70;;
21354;SDS011;10835;50.148;19.760;2022-10-01T06:05:57;30.10;;;16.25;;
21354;SDS011;10835;50.148;19.760;2022-10-01T06:08:27;28.58;;;15.13;;
21354;SDS011;10835;50.148;19.760;2022-10-01T06:10:57;30.75;;;14.98;;
21354;SDS011;10835;50.148;19.760;2022-10-01T06:13:26;27.98;;;15.82;;
21354;SDS011;10835;50.148;19.760;2022-10-01T06:15:55;30.30;;;15.15;;
21354;SDS011;10835;50.148;19.760;2022-10-01T06:18:23;26.25;;;14.25;;
21354;SDS011;10835;50.148;19.760;2022-10-01T06:20:52;26.85;;;14.57;;
21354;SDS011;10835;50.148;19.760;2022-10-01T06:23:20;32.50;;;16.85;;
21354;SDS011;10835;50.148;19.760;2022-10-01T06:25:49;28.88;;;16.35;;
21354;SDS011;10835;50.148;19.760;2022-10-01T06:28:17;31.23;;;15.90;;
21354;SDS011;10835;50.148;19.760;2022-10-01T06:30:48;32.13;;;16.25;;
21354;SDS011;10835;50.148;19.760;2022-10-01T06:33:16;30.75;;;15.70;;
21354;SDS011;10835;50.148;19.760;2022-10-01T06:35:44;27.90;;;16.02;;
21354;SDS011;10835;50.148;19.760;2022-10-01T06:38:15;27.95;;;15.05;;
21354;SDS011;10835;50.148;19.760;2022-10-01T06:40:50;27.38;;;15.50;;
21354;SDS011;10835;50.148;19.760;2022-10-01T06:43:19;27.85;;;15.30;;
21354;SDS011;10835;50.148;19.760;2022-10-01T06:45:47;31.25;;;16.75;;
21354;SDS011;10835;50.148;19.760;2022-10-01T06:48:16;36.42;;;16.10;;
21354;SDS011;10835;50.148;19.760;2022-10-01T06:50:45;39.08;;;17.58;;
21354;SDS011;10835;50.148;19.760;2022-10-01T06:53:14;32.90;;;17.42;;
21354;SDS011;10835;50.148;19.760;2022-10-01T06:55:43;36.55;;;17.45;;
21354;SDS011;10835;50.148;19.760;2022-10-01T06:58:13;37.03;;;17.90;;
21354;SDS011;10835;50.148;19.760;2022-10-01T07:00:42;30.73;;;16.85;;
21354;SDS011;10835;50.148;19.760;2022-10-01T07:03:12;33.50;;;17.67;;
21354;SDS011;10835;50.148;19.760;2022-10-01T07:05:41;33.15;;;16.85;;
21354;SDS011;10835;50.148;19.760;2022-10-01T07:08:10;31.40;;;17.25;;
21354;SDS011;10835;50.148;19.760;2022-10-01T07:10:38;34.40;;;17.73;;
21354;SDS011;10835;50.148;19.760;2022-10-01T07:13:10;30.95;;;17.35;;
21354;SDS011;10835;50.148;19.760;2022-10-01T07:15:41;31.77;;;17.92;;
21354;SDS011;10835;50.148;19.760;2022-10-01T07:18:14;38.35;;;18.00;;
21354;SDS011;10835;50.148;19.760;2022-10-01T07:20:43;30.92;;;16.25;;
21354;SDS011;10835;50.148;19.760;2022-10-01T07:23:11;31.23;;;17.17;;
21354;SDS011;10835;50.148;19.760;2022-10-01T07:25:41;34.25;;;17.48;;
21354;SDS011;10835;50.148;19.760;2022-10-01T07:28:10;32.38;;;16.38;;
21354;SDS011;10835;50.148;19.760;2022-10-01T07:30:44;33.67;;;16.75;;
21354;SDS011;10835;50.148;19.760;2022-10-01T07:33:16;33.22;;;17.30;;
21354;SDS011;10835;50.148;19.760;2022-10-01T07:35:45;31.35;;;17.35;;
21354;SDS011;10835;50.148;19.760;2022-10-01T07:38:13;29.13;;;16.60;;
21354;SDS011;10835;50.148;19.760;2022-10-01T07:40:41;33.42;;;17.85;;
21354;SDS011;10835;50.148;19.760;2022-10-01T07:43:09;35.47;;;18.83;;
21354;SDS011;10835;50.148;19.760;2022-10-01T07:45:41;34.42;;;17.35;;
21354;SDS011;10835;50.148;19.760;2022-10-01T07:48:12;31.23;;;15.93;;
21354;SDS011;10835;50.148;19.760;2022-10-01T07:50:41;27.80;;;16.13;;
21354;SDS011;10835;50.148;19.760;2022-10-01T07:53:10;33.08;;;16.95;;
21354;SDS011;10835;50.148;19.760;2022-10-01T07:55:39;30.92;;;16.13;;
21354;SDS011;10835;50.148;19.760;2022-10-01T07:58:06;28.75;;;16.50;;
21354;SDS011;10835;50.148;19.760;2022-10-01T08:00:36;32.33;;;17.23;;
21354;SDS011;10835;50.148;19.760;2022-10-01T08:03:07;30.98;;;17.20;;
21354;SDS011;10835;50.148;19.760;2022-10-01T08:05:38;33.28;;;17.13;;
21354;SDS011;10835;50.148;19.760;2022-10-01T08:08:07;31.20;;;17.42;;
21354;SDS011;10835;50.148;19.760;2022-10-01T08:10:36;32.03;;;17.58;;
21354;SDS011;10835;50.148;19.760;2022-10-01T08:13:05;34.65;;;18.90;;
21354;SDS011;10835;50.148;19.760;2022-10-01T08:15:40;34.70;;;16.67;;
21354;SDS011;10835;50.148;19.760;2022-10-01T08:18:10;32.90;;;17.23;;
21354;SDS011;10835;50.148;19.760;2022-10-01T08:20:38;30.25;;;16.38;;
21354;SDS011;10835;50.148;19.760;2022-10-01T08:23:06;28.65;;;16.60;;
21354;SDS011;10835;50.148;19.760;2022-10-01T08:25:36;32.65;;;17.65;;
21354;SDS011;10835;50.148;19.760;2022-10-01T08:28:05;33.08;;;17.83;;
21354;SDS011;10835;50.148;19.760;2022-10-01T08:30:34;33.03;;;18.20;;
21354;SDS011;10835;50.148;19.760;2022-10-01T08:33:04;29.67;;;16.67;;
21354;SDS011;10835;50.148;19.760;2022-10-01T08:35:38;31.35;;;17.02;;
21354;SDS011;10835;50.148;19.760;2022-10-01T08:38:07;33.03;;;18.08;;
21354;SDS011;10835;50.148;19.760;2022-10-01T08:40:39;39.90;;;19.55;;
21354;SDS011;10835;50.148;19.760;2022-10-01T08:43:24;33.20;;;18.35;;
21354;SDS011;10835;50.148;19.760;2022-10-01T08:45:56;31.27;;;17.98;;
21354;SDS011;10835;50.148;19.760;2022-10-01T08:48:35;33.15;;;17.50;;
21354;SDS011;10835;50.148;19.760;2022-10-01T08:51:12;33.63;;;17.85;;
21354;SDS011;10835;50.148;19.760;2022-10-01T08:53:46;34.40;;;18.38;;
21354;SDS011;10835;50.148;19.760;2022-10-01T08:56:20;32.13;;;17.55;;
21354;SDS011;10835;50.148;19.760;2022-10-01T08:58:52;37.13;;;17.42;;
21354;SDS011;10835;50.148;19.760;2022-10-01T09:01:24;34.38;;;18.83;;
21354;SDS011;10835;50.148;19.760;2022-10-01T09:03:55;30.38;;;16.88;;
21354;SDS011;10835;50.148;19.760;2022-10-01T09:06:27;31.77;;;16.70;;
21354;SDS011;10835;50.148;19.760;2022-10-01T09:08:58;25.13;;;15.02;;
21354;SDS011;10835;50.148;19.760;2022-10-01T09:11:47;32.38;;;16.50;;
21354;SDS011;10835;50.148;19.760;2022-10-01T09:14:40;29.30;;;14.25;;
21354;SDS011;10835;50.148;19.760;2022-10-01T09:17:19;29.92;;;15.38;;
21354;SDS011;10835;50.148;19.760;2022-10-01T09:20:00;26.05;;;14.43;;
21354;SDS011;10835;50.148;19.760;2022-10-01T09:22:39;24.92;;;14.70;;
21354;SDS011;10835;50.148;19.760;2022-10-01T09:25:12;27.48;;;16.08;;
21354;SDS011;10835;50.148;19.760;2022-10-01T09:27:43;25.83;;;14.35;;
21354;SDS011;10835;50.148;19.760;2022-10-01T09:30:13;28.92;;;15.40;;
21354;SDS011;10835;50.148;19.760;2022-10-01T09:32:44;26.17;;;15.20;;
21354;SDS011;10835;50.148;19.760;2022-10-01T09:35:23;24.08;;;13.95;;
21354;SDS011;10835;50.148;19.760;2022-10-01T09:38:03;25.17;;;13.95;;
21354;SDS011;10835;50.148;19.760;2022-10-01T09:40:37;25.10;;;12.90;;
21354;SDS011;10835;50.148;19.760;2022-10-01T09:43:11;22.58;;;13.07;;
21354;SDS011;10835;50.148;19.760;2022-10-01T09:45:39;23.48;;;12.90;;
21354;SDS011;10835;50.148;19.760;2022-10-01T09:48:13;18.83;;;11.48;;
21354;SDS011;10835;50.148;19.760;2022-10-01T09:50:46;19.08;;;10.98;;
21354;SDS011;10835;50.148;19.760;2022-10-01T09:53:23;19.08;;;11.38;;
21354;SDS011;10835;50.148;19.760;2022-10-01T09:55:57;17.90;;;10.18;;
21354;SDS011;10835;50.148;19.760;2022-10-01T09:58:31;25.45;;;10.85;;
21354;SDS011;10835;50.148;19.760;2022-10-01T10:01:03;17.90;;;11.15;;
21354;SDS011;10835;50.148;19.760;2022-10-01T10:03:51;18.20;;;11.10;;
21354;SDS011;10835;50.148;19.760;2022-10-01T10:06:22;20.08;;;10.48;;
21354;SDS011;10835;50.148;19.760;2022-10-01T10:08:56;15.90;;;10.40;;
21354;SDS011;10835;50.148;19.760;2022-10-01T10:11:26;12.90;;;8.23;;
21354;SDS011;10835;50.148;19.760;2022-10-01T10:13:57;14.35;;;7.97;;
21354;SDS011;10835;50.148;19.760;2022-10-01T10:16:28;12.40;;;7.07;;
21354;SDS011;10835;50.148;19.760;2022-10-01T10:19:02;12.77;;;7.80;;
21354;SDS011;10835;50.148;19.760;2022-10-01T10:21:32;14.90;;;8.82;;
21354;SDS011;10835;50.148;19.760;2022-10-01T10:24:03;14.25;;;9.35;;
21354;SDS011;10835;50.148;19.760;2022-10-01T10:26:34;14.00;;;9.15;;
21354;SDS011;10835;50.148;19.760;2022-10-01T10:29:05;16.60;;;9.75;;
21354;SDS011;10835;50.148;19.760;2022-10-01T10:31:50;12.65;;;8.27;;
21354;SDS011;10835;50.148;19.760;2022-10-01T10:34:22;11.93;;;8.27;;
21354;SDS011;10835;50.148;19.760;2022-10-01T10:36:57;15.38;;;7.72;;
21354;SDS011;10835;50.148;19.760;2022-10-01T10:39:32;14.07;;;8.18;;
21354;SDS011;10835;50.148;19.760;2022-10-01T10:42:03;13.38;;;8.05;;
21354;SDS011;10835;50.148;19.760;2022-10-01T10:44:32;15.05;;;9.25;;
21354;SDS011;10835;50.148;19.760;2022-10-01T10:47:05;13.82;;;8.13;;
21354;SDS011;10835;50.148;19.760;2022-10-01T10:49:37;15.15;;;8.70;;
21354;SDS011;10835;50.148;19.760;2022-10-01T10:52:17;13.88;;;8.02;;
21354;SDS011;10835;50.148;19.760;2022-10-01T10:54:50;13.13;;;8.52;;
21354;SDS011;10835;50.148;19.760;2022-10-01T10:57:19;11.98;;;8.50;;
21354;SDS011;10835;50.148;19.760;2022-10-01T10:59:53;13.70;;;8.05;;
21354;SDS011;10835;50.148;19.760;2022-10-01T11:02:22;13.38;;;7.90;;
21354;SDS011;10835;50.148;19.760;2022-10-01T11:04:51;9.85;;;6.05;;
21354;SDS011;10835;50.148;19.760;2022-10-01T11:07:22;9.50;;;5.90;;
21354;SDS011;10835;50.148;19.760;2022-10-01T11:10:02;9.95;;;6.72;;
21354;SDS011;10835;50.148;19.760;2022-10-01T11:12:45;11.70;;;7.22;;
21354;SDS011;10835;50.148;19.760;2022-10-01T11:15:31;9.90;;;6.68;;
21354;SDS011;10835;50.148;19.760;2022-10-01T11:18:16;10.23;;;6.47;;
21354;SDS011;10835;50.148;19.760;2022-10-01T11:21:14;12.20;;;6.85;;
21354;SDS011;10835;50.148;19.760;2022-10-01T11:24:00;10.88;;;7.03;;
21354;SDS011;10835;50.148;19.760;2022-10-01T11:26:39;11.80;;;6.88;;
21354;SDS011;10835;50.148;19.760;2022-10-01T11:29:20;12.38;;;7.10;;
21354;SDS011;10835;50.148;19.760;2022-10-01T11:31:59;9.55;;;6.38;;
21354;SDS011;10835;50.148;19.760;2022-10-01T11:34:40;12.45;;;7.05;;
21354;SDS011;10835;50.148;19.760;2022-10-01T11:37:26;12.48;;;6.82;;
21354;SDS011;10835;50.148;19.760;2022-10-01T11:40:03;10.20;;;6.32;;
21354;SDS011;10835;50.148;19.760;2022-10-01T11:42:42;13.18;;;6.88;;
21354;SDS011;10835;50.148;19.760;2022-10-01T11:45:13;8.82;;;6.13;;
21354;SDS011;10835;50.148;19.760;2022-10-01T11:47:49;8.90;;;6.70;;
21354;SDS011;10835;50.148;19.760;2022-10-01T11:50:21;13.15;;;6.75;;
21354;SDS011;10835;50.148;19.760;2022-10-01T11:52:53;12.30;;;7.22;;
21354;SDS011;10835;50.148;19.760;2022-10-01T11:55:28;8.38;;;5.60;;
21354;SDS011;10835;50.148;19.760;2022-10-01T11:58:21;12.80;;;8.02;;
21354;SDS011;10835;50.148;19.760;2022-10-01T12:01:27;15.30;;;8.45;;
21354;SDS011;10835;50.148;19.760;2022-10-01T12:04:01;11.45;;;7.72;;
21354;SDS011;10835;50.148;19.760;2022-10-01T12:06:35;13.10;;;8.23;;
21354;SDS011;10835;50.148;19.760;2022-10-01T12:09:09;11.10;;;8.15;;
21354;SDS011;10835;50.148;19.760;2022-10-01T12:11:41;12.55;;;7.68;;
21354;SDS011;10835;50.148;19.760;2022-10-01T12:14:16;10.15;;;6.97;;
21354;SDS011;10835;50.148;19.760;2022-10-01T12:16:49;14.40;;;8.18;;
21354;SDS011;10835;50.148;19.760;2022-10-01T12:19:22;9.95;;;7.20;;
21354;SDS011;10835;50.148;19.760;2022-10-01T12:21:55;17.45;;;7.30;;
21354;SDS011;10835;50.148;19.760;2022-10-01T12:24:27;13.23;;;7.15;;
21354;SDS011;10835;50.148;19.760;2022-10-01T12:29:57;14.00;;;7.97;;
21354;SDS011;10835;50.148;19.760;2022-10-01T12:32:31;17.85;;;7.63;;
21354;SDS011;10835;50.148;19.760;2022-10-01T12:35:18;14.13;;;7.35;;
21354;SDS011;10835;50.148;19.760;2022-10-01T12:38:04;12.50;;;8.50;;
21354;SDS011;10835;50.148;19.760;2022-10-01T12:40:44;12.48;;;8.75;;
21354;SDS011;10835;50.148;19.760;2022-10-01T12:43:21;13.63;;;8.30;;
21354;SDS011;10835;50.148;19.760;2022-10-01T12:46:05;17.38;;;9.30;;
21354;SDS011;10835;50.148;19.760;2022-10-01T12:48:45;18.33;;;10.73;;
21354;SDS011;10835;50.148;19.760;2022-10-01T12:51:30;17.20;;;10.38;;
21354;SDS011;10835;50.148;19.760;2022-10-01T12:54:07;19.80;;;11.70;;
21354;SDS011;10835;50.148;19.760;2022-10-01T12:56:48;24.40;;;15.07;;
21354;SDS011;10835;50.148;19.760;2022-10-01T12:59:28;24.65;;;13.23;;
21354;SDS011;10835;50.148;19.760;2022-10-01T13:02:16;25.25;;;14.40;;
21354;SDS011;10835;50.148;19.760;2022-10-01T13:07:51;21.63;;;13.23;;
21354;SDS011;10835;50.148;19.760;2022-10-01T13:10:33;24.13;;;12.50;;
21354;SDS011;10835;50.148;19.760;2022-10-01T13:13:15;22.63;;;14.02;;
21354;SDS011;10835;50.148;19.760;2022-10-01T13:15:50;24.45;;;14.20;;
21354;SDS011;10835;50.148;19.760;2022-10-01T13:18:27;29.02;;;14.77;;
21354;SDS011;10835;50.148;19.760;2022-10-01T13:21:03;24.77;;;14.25;;
21354;SDS011;10835;50.148;19.760;2022-10-01T13:23:38;28.23;;;15.32;;
21354;SDS011;10835;50.148;19.760;2022-10-01T13:26:13;26.08;;;14.93;;
21354;SDS011;10835;50.148;19.760;2022-10-01T13:28:53;26.15;;;16.15;;
21354;SDS011;10835;50.148;19.760;2022-10-01T13:31:35;30.60;;;15.73;;
21354;SDS011;10835;50.148;19.760;2022-10-01T13:37:10;25.20;;;15.98;;
21354;SDS011;10835;50.148;19.760;2022-10-01T13:39:42;27.02;;;15.65;;
21354;SDS011;10835;50.148;19.760;2022-10-01T13:45:04;27.30;;;15.98;;
21354;SDS011;10835;50.148;19.760;2022-10-01T13:47:38;28.58;;;15.65;;
21354;SDS011;10835;50.148;19.760;2022-10-01T13:50:17;28.23;;;15.40;;
21354;SDS011;10835;50.148;19.760;2022-10-01T13:52:49;27.13;;;16.20;;
21354;SDS011;10835;50.148;19.760;2022-10-01T13:55:23;26.58;;;13.85;;
21354;SDS011;10835;50.148;19.760;2022-10-01T13:58:00;28.30;;;15.23;;
21354;SDS011;10835;50.148;19.760;2022-10-01T14:00:30;25.75;;;15.30;;
21354;SDS011;10835;50.148;19.760;2022-10-01T14:02:59;27.35;;;14.13;;
21354;SDS011;10835;50.148;19.760;2022-10-01T14:05:33;28.25;;;15.60;;
21354;SDS011;10835;50.148;19.760;2022-10-01T14:08:05;21.65;;;13.40;;
21354;SDS011;10835;50.148;19.760;2022-10-01T14:10:43;22.27;;;13.77;;
21354;SDS011;10835;50.148;19.760;2022-10-01T14:13:33;22.65;;;13.07;;
21354;SDS011;10835;50.148;19.760;2022-10-01T14:16:26;24.05;;;13.35;;
21354;SDS011;10835;50.148;19.760;2022-10-01T14:18:57;26.73;;;14.30;;
21354;SDS011;10835;50.148;19.760;2022-10-01T14:21:31;24.15;;;13.73;;
21354;SDS011;10835;50.148;19.760;2022-10-01T14:24:10;20.95;;;13.23;;
21354;SDS011;10835;50.148;19.760;2022-10-01T14:26:49;22.13;;;13.10;;
21354;SDS011;10835;50.148;19.760;2022-10-01T14:29:27;19.40;;;12.10;;
21354;SDS011;10835;50.148;19.760;2022-10-01T14:32:12;20.83;;;12.73;;
21354;SDS011;10835;50.148;19.760;2022-10-01T14:34:57;24.25;;;13.48;;
21354;SDS011;10835;50.148;19.760;2022-10-01T14:37:38;18.00;;;12.05;;
21354;SDS011;10835;50.148;19.760;2022-10-01T14:40:11;21.67;;;12.75;;
21354;SDS011;10835;50.148;19.760;2022-10-01T14:42:42;24.58;;;13.95;;
21354;SDS011;10835;50.148;19.760;2022-10-01T14:45:14;21.08;;;11.43;;
21354;SDS011;10835;50.148;19.760;2022-10-01T14:47:44;20.67;;;12.32;;
21354;SDS011;10835;50.148;19.760;2022-10-01T14:50:16;21.95;;;13.65;;
21354;SDS011;10835;50.148;19.760;2022-10-01T14:52:49;20.70;;;13.18;;
21354;SDS011;10835;50.148;19.760;2022-10-01T14:55:20;21.50;;;11.65;;